createdAt,value
2023-02-26T07:01:37.493Z,100719.50
2023-02-26T07:04:40.067Z,100721.38
2023-02-26T07:07:42.869Z,100723.19
2023-02-26T07:10:46.185Z,100732.31
2023-02-26T07:13:48.838Z,100736.97
2023-02-26T07:16:52.687Z,100747.50
2023-02-26T07:19:55.163Z,100752.13
2023-02-26T07:22:59.694Z,100763.00
2023-02-26T07:26:02.283Z,100769.78
2023-02-26T07:29:04.729Z,100774.69
2023-02-26T07:32:08.646Z,100784.56
2023-02-26T07:35:11.759Z,100780.56
2023-02-26T07:38:14.240Z,100792.06
2023-02-26T07:41:16.775Z,100799.06
2023-02-26T07:44:19.191Z,100796.13
2023-02-26T07:47:23.104Z,100803.81
2023-02-26T07:50:25.870Z,100814.75
2023-02-26T07:53:28.287Z,100824.75
2023-02-26T07:56:31.125Z,100829.28
2023-02-26T07:59:33.612Z,100832.44
2023-02-26T08:02:37.389Z,100835.13
2023-02-26T08:05:39.956Z,100834.50
2023-02-26T08:08:42.391Z,100836.13
2023-02-26T08:11:44.880Z,100847.47
2023-02-26T08:14:47.916Z,100854.41
2023-02-26T08:17:53.144Z,100858.78
2023-02-26T08:20:55.739Z,100857.06
2023-02-26T08:23:58.438Z,100858.75
2023-02-26T08:27:00.901Z,100863.09
2023-02-26T08:30:03.604Z,100869.97
2023-02-26T08:33:07.369Z,100868.19
2023-02-26T08:36:10.682Z,100867.31
2023-02-26T08:39:13.106Z,100871.53
2023-02-26T08:42:16.374Z,100879.34
2023-02-26T08:45:19.071Z,100884.47
2023-02-26T08:48:23.452Z,100873.88
2023-02-26T08:51:26.206Z,100892.03
2023-02-26T08:54:28.901Z,100895.34
2023-02-26T08:57:31.336Z,100898.59
2023-02-26T09:00:34.018Z,100902.94
2023-02-26T09:03:37.971Z,100911.38
2023-02-26T09:06:40.401Z,100916.38
2023-02-26T09:09:42.879Z,100924.16
2023-02-26T09:12:46.673Z,100928.53
2023-02-26T09:15:50.524Z,100939.63
2023-02-26T09:18:54.311Z,100931.56
2023-02-26T09:21:56.875Z,100950.53
2023-02-26T09:24:59.421Z,100952.38
2023-02-26T09:28:02.075Z,100960.44
2023-02-26T09:31:07.606Z,100965.00
2023-02-26T09:34:12.563Z,100965.34
2023-02-26T09:37:15.049Z,100973.06
2023-02-26T09:40:25.658Z,100984.41
2023-02-26T09:43:55.065Z,100978.16
2023-02-26T09:47:05.088Z,100983.84
2023-02-26T09:50:16.874Z,100992.88
2023-02-26T09:53:22.702Z,101002.88
2023-02-26T09:56:27.905Z,101006.97
2023-02-26T09:59:34.529Z,100994.19
2023-02-26T10:02:44.633Z,101005.72
2023-02-26T10:06:06.864Z,101012.06
2023-02-26T10:09:25.915Z,101014.47
2023-02-26T10:12:30.095Z,101020.22
2023-02-26T10:15:38.867Z,101014.03
2023-02-26T10:18:47.302Z,101023.44
2023-02-26T10:21:54.514Z,101033.38
2023-02-26T10:25:01.460Z,101039.44
2023-02-26T10:28:18.671Z,101048.28
2023-02-26T10:31:28.073Z,101045.53
2023-02-26T10:34:36.044Z,101051.78
2023-02-26T10:37:47.986Z,101053.81
2023-02-26T10:40:52.073Z,101050.41
2023-02-26T10:44:04.330Z,101056.78
2023-02-26T10:47:18.241Z,101058.69
2023-02-26T10:50:23.312Z,101056.81
2023-02-26T10:53:29.754Z,101066.19
2023-02-26T10:56:33.934Z,101078.63
2023-02-26T10:59:36.408Z,101069.47
2023-02-26T11:02:41.126Z,101079.00
2023-02-26T11:05:43.582Z,101074.53
2023-02-26T11:08:50.535Z,101082.72
2023-02-26T11:11:55.109Z,101085.84
2023-02-26T11:14:57.531Z,101091.78
2023-02-26T11:18:01.113Z,101088.13
2023-02-26T11:21:06.842Z,101091.09
2023-02-26T11:24:15.765Z,101089.41
2023-02-26T11:27:22.818Z,101089.50
2023-02-26T11:30:27.497Z,101091.72
2023-02-26T11:33:35.284Z,101083.28
2023-02-26T11:36:40.650Z,101079.59
2023-02-26T11:39:45.247Z,101094.13
2023-02-26T11:42:53.629Z,101085.84
2023-02-26T11:46:00.696Z,101101.91
2023-02-26T11:49:03.264Z,101094.47
2023-02-26T11:52:17.986Z,101104.53
2023-02-26T11:55:29.537Z,101109.78
2023-02-26T11:58:38.288Z,101099.47
2023-02-26T12:05:07.894Z,101103.81
2023-02-26T12:08:19.784Z,101096.22
2023-02-26T12:11:31.560Z,101110.13
2023-02-26T12:14:48.996Z,101117.94
2023-02-26T12:18:04.350Z,101115.09
2023-02-26T12:21:33.367Z,101108.50
2023-02-26T12:25:06.483Z,101111.44
2023-02-26T12:28:41.195Z,101121.00
2023-02-26T12:32:16.237Z,101112.78
2023-02-26T12:35:33.342Z,101118.78
2023-02-26T12:39:01.675Z,101125.34
2023-02-26T12:42:21.864Z,101127.28
2023-02-26T12:45:53.998Z,101124.03
2023-02-26T12:49:07.319Z,101129.75
2023-02-26T12:52:41.493Z,101137.88
2023-02-26T12:55:55.456Z,101140.94
2023-02-26T12:59:13.933Z,101141.88
2023-02-26T13:02:55.138Z,101141.44
2023-02-26T13:06:16.947Z,101139.38
2023-02-26T13:09:31.856Z,101149.16
2023-02-26T13:12:43.581Z,101158.69
2023-02-26T13:15:57.293Z,101147.78
2023-02-26T13:19:08.916Z,101162.47
2023-02-26T13:22:19.696Z,101151.44
2023-02-26T13:25:26.744Z,101160.75
2023-02-26T13:28:46.684Z,101154.94
2023-02-26T13:31:54.439Z,101160.41
2023-02-26T13:35:00.935Z,101157.06
2023-02-26T13:38:22.494Z,101158.47
2023-02-26T13:41:35.789Z,101159.47
2023-02-26T13:44:50.305Z,101159.94
2023-02-26T13:48:17.989Z,101156.63
2023-02-26T13:51:30.446Z,101158.41
2023-02-26T13:54:45.470Z,101158.47
2023-02-26T13:57:52.331Z,101165.44
2023-02-26T14:01:02.254Z,101165.59
2023-02-26T14:04:23.209Z,101177.75
2023-02-26T14:07:47.626Z,101172.19
2023-02-26T14:10:59.524Z,101167.34
2023-02-26T14:14:12.998Z,101161.84
2023-02-26T14:17:49.275Z,101174.03
2023-02-26T14:20:52.134Z,101175.16
2023-02-26T14:23:58.825Z,101169.97
2023-02-26T14:27:25.740Z,101172.63
2023-02-26T14:30:31.088Z,101175.22
2023-02-26T14:33:40.903Z,101176.06
2023-02-26T14:36:48.040Z,101177.47
2023-02-26T14:39:55.336Z,101189.38
2023-02-26T14:43:01.854Z,101182.00
2023-02-26T14:46:05.929Z,101191.69
2023-02-26T14:49:18.230Z,101189.13
2023-02-26T14:52:37.448Z,101191.78
2023-02-26T14:55:56.311Z,101192.56
2023-02-26T14:59:16.891Z,101192.56
2023-02-26T15:02:31.772Z,101194.31
2023-02-26T15:05:45.502Z,101201.31
2023-02-26T15:09:02.076Z,101203.84
2023-02-26T15:12:16.359Z,101197.81
2023-02-26T15:15:42.333Z,101206.50
2023-02-26T15:19:00.166Z,101209.22
2023-02-26T15:22:18.075Z,101214.47
2023-02-26T15:25:29.550Z,101220.59
2023-02-26T15:28:35.601Z,101214.50
2023-02-26T15:31:43.859Z,101227.59
2023-02-26T15:34:48.779Z,101225.84
2023-02-26T15:37:54.995Z,101228.47
2023-02-26T15:41:03.460Z,101222.44
2023-02-26T15:44:10.686Z,101233.69
2023-02-26T15:47:17.133Z,101228.50
2023-02-26T15:50:30.147Z,101232.84
2023-02-26T15:53:36.592Z,101234.50
2023-02-26T15:56:41.297Z,101238.88
2023-02-26T15:59:47.230Z,101238.00
2023-02-26T16:02:51.680Z,101249.31
2023-02-26T16:05:56.055Z,101251.06
2023-02-26T16:09:00.257Z,101258.88
2023-02-26T16:12:07.790Z,101259.75
2023-02-26T16:15:15.086Z,101258.91
2023-02-26T16:18:24.652Z,101271.94
2023-02-26T16:21:32.249Z,101270.22
2023-02-26T16:24:35.943Z,101278.03
2023-02-26T16:27:39.455Z,101278.91
2023-02-26T16:30:46.028Z,101285.88
2023-02-26T16:46:34.741Z,101300.56
2023-02-26T17:04:39.247Z,101328.94
2023-02-26T17:07:48.887Z,101330.63
2023-02-26T17:10:55.273Z,101336.72
